Anita, Iowa
Current Conditions -  °F | °C
As of 5:15 PM on Wednesday 22 Oct 2014 (Local Time) from KAIO Reporting Station
Clear Clear  
Wind Chill: 70°   Ceiling: Unl
Heat Index: 70°   Visibility: 10mi
Dew Point: 52°   Wind: 15mph
Humidity: 53%   Direction: 150°SSE
Pressure: 30.04"   Gusts: 21mph
Location:  41.45°N, 94.76°W
Report Text: KAIO 222215Z AUTO 15013G18KT 10SM CLR 21/11 A3004 RMK AO2
Loading
Personal Weather Stations






























Interactive Weather Map
Tropical Storm Tracking
New forecast layout! Learn more

10-Day Weather Forecast

Advertisements
Track Severe Weather on mobile